Time;durP1;ratioP1;P1;durP2;ratioP2;P2;SDS_P1;SDS_P2;PMS_P1;PMS_P2;Temp;Humidity;BMP_temperature;BMP_pressure;BME280_temperature;BME280_humidity;BME280_pressure;Samples;Min_cycle;Max_cycle;Signal;HPM_P1;HPM_P2
2023/03/25 00:00:58;;;;;;;8.63;6.47;;;;;;;-145.63;100.00;61273.97;5023689;28;20163;-67
2023/03/25 00:03:25;;;;;;;18.23;16.33;;;;;;;-145.63;100.00;61273.97;5024317;28;20287;-67
2023/03/25 00:05:52;;;;;;;19.50;17.45;;;;;;;-145.63;100.00;61273.97;5022184;28;20037;-66
2023/03/25 00:08:18;;;;;;;25.75;23.00;;;;;;;-145.63;100.00;61273.97;5023457;28;20026;-66
2023/03/25 00:10:43;;;;;;;37.80;34.25;;;;;;;-145.63;100.00;61273.97;5018597;28;20040;-67
2023/03/25 00:13:12;;;;;;;35.80;32.50;;;;;;;-145.63;100.00;61273.97;5024021;28;20040;-66
2023/03/25 00:15:47;;;;;;;30.67;27.63;;;;;;;-145.63;100.00;61273.97;5024046;28;20072;-68
2023/03/25 00:18:16;;;;;;;37.47;33.60;;;;;;;-145.63;100.00;61273.97;5021408;28;20030;-66
2023/03/25 00:20:44;;;;;;;20.13;18.00;;;;;;;-145.63;100.00;61273.97;5010397;28;20049;-67
2023/03/25 00:23:11;;;;;;;32.72;29.35;;;;;;;-145.63;100.00;61273.97;5023411;28;20045;-66
2023/03/25 00:25:37;;;;;;;26.25;23.50;;;;;;;-145.63;100.00;61273.97;5018423;28;20037;-66
2023/03/25 00:28:03;;;;;;;31.20;27.90;;;;;;;-145.63;100.00;61273.97;5023721;28;20037;-66
2023/03/25 00:30:28;;;;;;;19.77;17.73;;;;;;;-145.63;100.00;61273.97;5023145;28;20022;-68
2023/03/25 00:32:56;;;;;;;16.70;13.77;;;;;;;-145.63;100.00;61273.97;5020910;28;20033;-68
2023/03/25 00:35:22;;;;;;;13.25;9.13;;;;;;;-145.63;100.00;61273.97;5010858;28;20094;-68
2023/03/25 00:37:58;;;;;;;11.20;7.20;;;;;;;-145.63;100.00;61273.97;5023306;28;20026;-68
2023/03/25 00:40:34;;;;;;;8.73;7.30;;;;;;;-145.63;100.00;61273.97;5018618;28;20042;-68
2023/03/25 00:43:01;;;;;;;8.40;6.43;;;;;;;-145.63;100.00;61273.97;5023425;28;20088;-67
2023/03/25 00:45:28;;;;;;;9.90;5.50;;;;;;;-145.63;100.00;61273.97;5022912;28;20194;-68
2023/03/25 00:47:53;;;;;;;6.97;5.05;;;;;;;-145.63;100.00;61273.97;5023412;28;20111;-68
2023/03/25 00:50:20;;;;;;;8.60;5.95;;;;;;;-145.63;100.00;61273.97;5011029;28;20330;-68
2023/03/25 00:52:47;;;;;;;6.13;5.03;;;;;;;-145.63;100.00;61273.97;5023010;28;20092;-68
2023/03/25 00:55:13;;;;;;;5.72;4.78;;;;;;;-145.63;100.00;61273.97;5019603;28;20027;-68
2023/03/25 00:57:38;;;;;;;6.30;4.88;;;;;;;-145.63;100.00;61273.97;5022321;28;20054;-68
2023/03/25 01:00:07;;;;;;;8.57;4.88;;;;;;;-145.63;100.00;61273.97;5023063;28;20049;-69
2023/03/25 01:02:33;;;;;;;8.10;5.00;;;;;;;-145.63;100.00;61273.97;5022217;28;20234;-68
2023/03/25 01:04:59;;;;;;;4.95;4.40;;;;;;;-145.63;100.00;61273.97;5023323;28;20026;-69
2023/03/25 01:07:28;;;;;;;7.50;5.10;;;;;;;-145.63;100.00;61273.97;5022856;28;20026;-68
2023/03/25 01:09:55;;;;;;;5.72;4.72;;;;;;;-145.63;100.00;61273.97;5021962;28;20122;-68
2023/03/25 01:12:21;;;;;;;4.90;4.30;;;;;;;-145.63;100.00;61273.97;5019630;28;20022;-68
2023/03/25 01:14:47;;;;;;;6.93;5.00;;;;;;;-145.63;100.00;61273.97;5023095;28;20048;-68
2023/03/25 01:17:12;;;;;;;6.18;4.97;;;;;;;-145.63;100.00;61273.97;5022831;28;20037;-68
2023/03/25 01:19:38;;;;;;;7.43;5.38;;;;;;;-145.63;100.00;61273.97;5015379;28;20034;-67
2023/03/25 01:22:04;;;;;;;5.88;5.03;;;;;;;-145.63;100.00;61273.97;5016695;28;20092;-67
2023/03/25 01:24:30;;;;;;;5.72;4.63;;;;;;;-145.63;100.00;61273.97;5021298;28;20057;-68
2023/03/25 01:26:56;;;;;;;7.28;5.63;;;;;;;-145.63;100.00;61273.97;5022776;28;20042;-67
2023/03/25 01:29:22;;;;;;;8.85;5.53;;;;;;;-145.63;100.00;61273.97;5022713;28;20030;-68
2023/03/25 01:31:48;;;;;;;6.45;5.50;;;;;;;-145.63;100.00;61273.97;5024911;28;20034;-67
2023/03/25 01:34:14;;;;;;;7.25;5.65;;;;;;;-145.63;100.00;61273.97;5019781;28;20076;-69
2023/03/25 01:36:45;;;;;;;8.10;5.70;;;;;;;-145.63;100.00;61273.97;5013599;28;20026;-69
2023/03/25 01:39:12;;;;;;;10.10;6.07;;;;;;;-145.63;100.00;61273.97;5022902;28;20203;-69
2023/03/25 01:41:38;;;;;;;7.95;6.10;;;;;;;-145.63;100.00;61273.97;5018626;28;20566;-68
2023/03/25 01:44:08;;;;;;;9.13;6.28;;;;;;;-145.63;100.00;61273.97;5022191;28;20036;-68
2023/03/25 01:46:38;;;;;;;9.65;6.43;;;;;;;-145.63;100.00;61273.97;5022234;28;20072;-69
2023/03/25 01:49:07;;;;;;;8.30;6.32;;;;;;;-145.63;100.00;61273.97;5021349;28;20026;-69
2023/03/25 01:51:39;;;;;;;6.43;5.78;;;;;;;-145.63;100.00;61273.97;5012579;28;20430;-68
2023/03/25 01:54:05;;;;;;;7.50;6.20;;;;;;;-145.63;100.00;61273.97;5021984;28;20297;-68
2023/03/25 01:56:35;;;;;;;8.45;5.90;;;;;;;-145.63;100.00;61273.97;5018301;28;20060;-69
2023/03/25 01:59:04;;;;;;;8.80;6.32;;;;;;;-145.63;100.00;61273.97;5021566;28;20096;-69
2023/03/25 02:01:31;;;;;;;8.30;6.50;;;;;;;-145.63;100.00;61273.97;5022341;28;20040;-68
2023/03/25 02:04:01;;;;;;;9.85;6.80;;;;;;;-145.63;100.00;61273.97;5022675;28;20096;-68
2023/03/25 02:06:38;;;;;;;6.82;6.03;;;;;;;-145.63;100.00;61273.97;5020388;28;20052;-70
2023/03/25 02:09:05;;;;;;;8.25;6.78;;;;;;;-145.63;100.00;61273.97;5022584;28;20318;-68
2023/03/25 02:11:32;;;;;;;8.55;6.70;;;;;;;-145.63;100.00;61273.97;5018413;28;20029;-68
2023/03/25 02:14:01;;;;;;;9.07;7.30;;;;;;;-145.63;100.00;61273.97;5022012;28;20103;-68
2023/03/25 02:16:40;;;;;;;7.93;6.82;;;;;;;-145.63;100.00;61273.97;5021873;28;20037;-69
2023/03/25 02:19:25;;;;;;;8.57;7.13;;;;;;;-145.63;100.00;61273.97;5024191;28;20025;-68
2023/03/25 02:22:10;;;;;;;10.05;7.38;;;;;;;-145.63;100.00;61273.97;5029175;28;20038;-68
2023/03/25 02:24:54;;;;;;;8.45;6.93;;;;;;;-145.63;100.00;61273.97;5002192;28;20117;-69
2023/03/25 02:27:40;;;;;;;10.15;7.32;;;;;;;-145.63;100.00;61273.97;5020250;28;20030;-68
2023/03/25 02:30:25;;;;;;;13.70;8.00;;;;;;;-145.63;100.00;61273.97;5026605;28;20037;-68
2023/03/25 02:33:10;;;;;;;10.20;7.53;;;;;;;-145.63;100.00;61273.97;5029524;28;20068;-69
2023/03/25 02:35:54;;;;;;;9.45;7.63;;;;;;;-145.63;100.00;61273.97;5013137;28;20058;-67
2023/03/25 02:38:35;;;;;;;11.85;7.75;;;;;;;-145.63;100.00;61273.97;5025790;28;20116;-68
2023/03/25 02:41:22;;;;;;;9.85;7.95;;;;;;;-145.63;100.00;61273.97;5021856;28;20044;-67
2023/03/25 02:43:55;;;;;;;9.93;7.70;;;;;;;-145.63;100.00;61273.97;5025430;28;20056;-69
2023/03/25 02:46:23;;;;;;;10.60;7.90;;;;;;;-145.63;100.00;61273.97;5024169;28;20325;-68
2023/03/25 02:48:52;;;;;;;10.70;8.35;;;;;;;-145.63;100.00;61273.97;5025028;28;20287;-68
2023/03/25 02:51:28;;;;;;;10.38;7.63;;;;;;;-145.63;100.00;61273.97;5013732;28;20061;-68
2023/03/25 02:53:57;;;;;;;8.18;6.90;;;;;;;-145.63;100.00;61273.97;5042615;28;20018;-68
2023/03/25 02:56:25;;;;;;;8.73;7.82;;;;;;;-145.63;100.00;61273.97;5035617;28;20052;-70
2023/03/25 02:58:56;;;;;;;9.85;7.72;;;;;;;-145.63;100.00;61273.97;5024948;28;20096;-68
2023/03/25 03:01:25;;;;;;;10.32;8.07;;;;;;;-145.63;100.00;61273.97;5025141;28;20049;-69
2023/03/25 03:03:52;;;;;;;9.60;7.97;;;;;;;-145.63;100.00;61273.97;5025198;28;20083;-69
2023/03/25 03:06:19;;;;;;;11.10;7.78;;;;;;;-145.63;100.00;61273.97;5024931;28;20029;-70
2023/03/25 03:08:48;;;;;;;11.32;7.78;;;;;;;-145.63;100.00;61273.97;5024526;28;20033;-70
2023/03/25 03:11:24;;;;;;;23.55;14.25;;;;;;;-145.63;100.00;61273.97;5021722;28;20069;-71
2023/03/25 03:14:24;;;;;;;11.60;8.00;;;;;;;-145.63;100.00;61273.97;5025229;28;20310;-69
2023/03/25 03:17:07;;;;;;;11.63;7.88;;;;;;;-145.63;100.00;61273.97;5024663;28;20073;-69
2023/03/25 03:19:45;;;;;;;14.45;8.50;;;;;;;-145.63;100.00;61273.97;5023793;28;20318;-68
2023/03/25 03:22:37;;;;;;;11.82;8.57;;;;;;;-145.63;100.00;61273.97;5024085;28;20102;-67
2023/03/25 03:25:18;;;;;;;10.20;7.72;;;;;;;-145.63;100.00;61273.97;5024293;28;20036;-68
2023/03/25 03:27:56;;;;;;;11.18;8.40;;;;;;;-145.63;100.00;61273.97;5024630;28;20030;-69
2023/03/25 03:30:47;;;;;;;14.35;9.35;;;;;;;-145.63;100.00;61273.97;5024534;28;20038;-67
2023/03/25 03:33:24;;;;;;;10.88;7.93;;;;;;;-145.63;100.00;61273.97;5023059;28;20033;-68
2023/03/25 03:36:19;;;;;;;8.73;7.78;;;;;;;-145.63;100.00;61273.97;5013064;28;20026;-69
2023/03/25 03:38:49;;;;;;;11.00;8.18;;;;;;;-145.63;100.00;61273.97;5024558;28;20029;-68
2023/03/25 03:41:19;;;;;;;10.23;8.02;;;;;;;-145.63;100.00;61273.97;5020360;28;20026;-68
2023/03/25 03:43:54;;;;;;;12.68;8.20;;;;;;;-145.63;100.00;61273.97;5024418;28;20030;-70
2023/03/25 03:47:06;;;;;;;9.35;8.00;;;;;;;-145.63;100.00;61273.97;5024125;28;20042;-68
2023/03/25 03:49:38;;;;;;;10.20;7.70;;;;;;;-145.63;100.00;61273.97;5019180;28;20069;-69
2023/03/25 03:52:20;;;;;;;13.20;9.02;;;;;;;-145.63;100.00;61273.97;5018301;28;20038;-69
2023/03/25 03:54:55;;;;;;;;;;;;;;;-145.63;100.00;61273.97;5024284;28;20053;-68
2023/03/25 03:57:34;;;;;;;11.13;7.90;;;;;;;-145.63;100.00;61273.97;5023985;28;19976;-68
2023/03/25 04:00:08;;;;;;;11.93;8.43;;;;;;;-145.63;100.00;61273.97;5023981;28;20044;-68
2023/03/25 04:02:46;;;;;;;9.77;7.70;;;;;;;-145.63;100.00;61273.97;5023138;28;20050;-67
2023/03/25 04:05:15;;;;;;;9.52;7.78;;;;;;;-145.63;100.00;61273.97;5024049;28;20037;-68
2023/03/25 04:07:53;;;;;;;11.85;7.85;;;;;;;-145.63;100.00;61273.97;5028946;28;20025;-67
2023/03/25 04:10:28;;;;;;;10.50;7.68;;;;;;;-145.63;100.00;61273.97;5042459;28;20094;-69
2023/03/25 04:12:57;;;;;;;13.80;8.20;;;;;;;-145.63;100.00;61273.97;5003856;28;20064;-69
2023/03/25 04:15:23;;;;;;;10.75;7.75;;;;;;;-145.63;100.00;61273.97;5041586;28;20033;-68
2023/03/25 04:17:49;;;;;;;12.20;8.10;;;;;;;-145.63;100.00;61273.97;5022764;28;20334;-69
2023/03/25 04:20:22;;;;;;;11.88;7.53;;;;;;;-145.63;100.00;61273.97;5033508;28;20072;-68
2023/03/25 04:22:51;;;;;;;11.07;7.85;;;;;;;-145.63;100.00;61273.97;5023093;28;20076;-68
2023/03/25 04:25:20;;;;;;;11.55;7.32;;;;;;;-145.63;100.00;61273.97;5021406;28;20026;-68
2023/03/25 04:27:47;;;;;;;10.32;7.65;;;;;;;-145.63;100.00;61273.97;5023448;28;20030;-69
2023/03/25 04:30:17;;;;;;;9.50;6.95;;;;;;;-145.63;100.00;61273.97;5022924;28;20053;-68
2023/03/25 04:32:47;;;;;;;11.88;7.88;;;;;;;-145.63;100.00;61273.97;5027527;28;20049;-68
2023/03/25 04:35:18;;;;;;;8.35;6.85;;;;;;;-145.63;100.00;61273.97;5012902;28;20199;-68
2023/03/25 04:37:44;;;;;;;8.45;6.93;;;;;;;-145.63;100.00;61273.97;5022485;28;20147;-68
2023/03/25 04:40:17;;;;;;;9.00;6.68;;;;;;;-145.63;100.00;61273.97;5022224;28;20053;-67
2023/03/25 04:42:45;;;;;;;9.85;6.90;;;;;;;-145.63;100.00;61273.97;5022619;28;20093;-68
2023/03/25 04:45:15;;;;;;;11.35;6.75;;;;;;;-145.63;100.00;61273.97;5023235;28;20034;-68
2023/03/25 04:47:45;;;;;;;12.35;6.28;;;;;;;-145.63;100.00;61273.97;5022619;28;20068;-70
2023/03/25 04:50:26;;;;;;;6.35;5.53;;;;;;;-145.63;100.00;61273.97;5014121;28;20041;-68
2023/03/25 04:52:53;;;;;;;6.95;5.47;;;;;;;-145.63;100.00;61273.97;5021805;28;20199;-68
2023/03/25 04:55:20;;;;;;;8.32;5.70;;;;;;;-145.63;100.00;61273.97;5021308;28;20044;-70
2023/03/25 04:57:47;;;;;;;7.53;5.90;;;;;;;-145.63;100.00;61273.97;5022587;28;20121;-67
2023/03/25 05:00:15;;;;;;;6.13;5.22;;;;;;;-145.63;100.00;61273.97;5022355;28;20253;-67
2023/03/25 05:02:48;;;;;;;6.28;5.38;;;;;;;-145.63;100.00;61273.97;5022651;28;20064;-68
2023/03/25 05:05:19;;;;;;;7.63;5.80;;;;;;;-145.63;100.00;61273.97;5023146;28;20037;-68
2023/03/25 05:07:52;;;;;;;7.65;5.55;;;;;;;-145.63;100.00;61273.97;5027895;28;20033;-68
2023/03/25 05:10:19;;;;;;;7.68;5.55;;;;;;;-145.63;100.00;61273.97;5027735;28;20022;-68
2023/03/25 05:12:45;;;;;;;7.93;5.85;;;;;;;-145.63;100.00;61273.97;5024686;28;20065;-68
2023/03/25 05:15:12;;;;;;;7.80;5.57;;;;;;;-145.63;100.00;61273.97;5025209;28;20029;-69
2023/03/25 05:17:38;;;;;;;7.93;5.85;;;;;;;-145.63;100.00;61273.97;5021503;28;20036;-66
2023/03/25 05:20:06;;;;;;;8.65;5.50;;;;;;;-145.63;100.00;61273.97;5014748;28;20129;-70
2023/03/25 05:22:32;;;;;;;7.03;5.75;;;;;;;-145.63;100.00;61273.97;5020594;28;20033;-68
2023/03/25 05:24:57;;;;;;;23.30;13.88;;;;;;;-145.63;100.00;61273.97;5022661;28;20032;-68
2023/03/25 05:27:23;;;;;;;8.18;5.30;;;;;;;-145.63;100.00;61273.97;5022876;28;20054;-69
2023/03/25 05:29:49;;;;;;;6.60;5.10;;;;;;;-145.63;100.00;61273.97;5022736;28;20030;-68
2023/03/25 05:32:17;;;;;;;6.07;5.30;;;;;;;-145.63;100.00;61273.97;5027622;28;20322;-70
2023/03/25 05:34:46;;;;;;;6.22;5.63;;;;;;;-145.63;100.00;61273.97;5016751;28;20234;-68
2023/03/25 05:37:13;;;;;;;8.70;5.80;;;;;;;-145.63;100.00;61273.97;5018706;28;20208;-71
2023/03/25 05:39:38;;;;;;;6.70;5.03;;;;;;;-145.63;100.00;61273.97;5044372;28;20037;-70
2023/03/25 05:42:04;;;;;;;7.43;5.50;;;;;;;-145.63;100.00;61273.97;5026806;28;20048;-67
2023/03/25 05:44:29;;;;;;;8.68;5.53;;;;;;;-145.63;100.00;61273.97;5022728;28;20038;-68
2023/03/25 05:46:55;;;;;;;6.35;5.70;;;;;;;-145.63;100.00;61273.97;5022595;28;20026;-71
2023/03/25 05:49:21;;;;;;;7.68;5.95;;;;;;;-145.63;100.00;61273.97;5024531;28;20030;-70
2023/03/25 05:51:48;;;;;;;8.55;6.03;;;;;;;-145.63;100.00;61273.97;5030637;28;20219;-70
2023/03/25 05:54:14;;;;;;;7.03;5.93;;;;;;;-145.63;100.00;61273.97;5022616;28;20034;-70
2023/03/25 05:56:41;;;;;;;6.05;5.40;;;;;;;-145.63;100.00;61273.97;5020262;28;20050;-70
2023/03/25 05:59:09;;;;;;;10.98;6.78;;;;;;;-145.63;100.00;61273.97;5022655;28;20466;-70
2023/03/25 06:01:38;;;;;;;8.35;6.13;;;;;;;-145.63;100.00;61273.97;5026861;28;20136;-72
2023/03/25 06:04:04;;;;;;;8.98;6.07;;;;;;;-145.63;100.00;61273.97;5031492;28;20037;-69
2023/03/25 06:06:34;;;;;;;8.95;6.00;;;;;;;-145.63;100.00;61273.97;5034566;28;20076;-70
2023/03/25 06:09:01;;;;;;;9.10;6.45;;;;;;;-145.63;100.00;61273.97;5033269;28;20052;-67
2023/03/25 06:11:26;;;;;;;10.32;6.13;;;;;;;-145.63;100.00;61273.97;5036053;28;20041;-72
2023/03/25 06:13:52;;;;;;;9.18;6.93;;;;;;;-145.63;100.00;61273.97;5036982;28;20080;-71
2023/03/25 06:16:26;;;;;;;8.63;7.05;;;;;;;-145.63;100.00;61273.97;5038750;28;20254;-71
2023/03/25 06:18:55;;;;;;;7.88;6.65;;;;;;;-145.63;100.00;61273.97;5046329;28;20089;-71
2023/03/25 06:21:22;;;;;;;8.68;6.80;;;;;;;-145.63;100.00;61273.97;5027894;28;20030;-69
2023/03/25 06:23:49;;;;;;;8.30;6.97;;;;;;;-145.63;100.00;61273.97;5024786;28;20041;-74
2023/03/25 06:26:15;;;;;;;7.88;6.43;;;;;;;-145.63;100.00;61273.97;5024327;28;20302;-68
2023/03/25 06:28:42;;;;;;;8.20;6.55;;;;;;;-145.63;100.00;61273.97;5025650;28;20222;-70
2023/03/25 06:31:15;;;;;;;9.07;6.70;;;;;;;-145.63;100.00;61273.97;5030850;28;20104;-69
2023/03/25 06:33:43;;;;;;;9.73;7.03;;;;;;;-145.63;100.00;61273.97;5006236;28;20053;-68
2023/03/25 06:36:10;;;;;;;8.75;6.72;;;;;;;-145.63;100.00;61273.97;5020975;28;20018;-70
2023/03/25 06:38:37;;;;;;;9.07;6.85;;;;;;;-145.63;100.00;61273.97;5025568;28;20034;-69
2023/03/25 06:41:03;;;;;;;10.20;7.05;;;;;;;-145.63;100.00;61273.97;5024102;28;20290;-69
2023/03/25 06:43:28;;;;;;;10.68;7.80;;;;;;;-145.63;100.00;61273.97;5025719;28;20026;-69
2023/03/25 06:45:54;;;;;;;8.82;7.80;;;;;;;-145.63;100.00;61273.97;5025229;28;20045;-70
2023/03/25 06:48:19;;;;;;;10.55;7.82;;;;;;;-145.63;100.00;61273.97;5024299;28;20102;-67
2023/03/25 06:50:45;;;;;;;9.98;7.75;;;;;;;-145.63;100.00;61273.97;5015458;28;20033;-70
2023/03/25 06:53:11;;;;;;;10.75;8.10;;;;;;;-145.63;100.00;61273.97;5025459;28;20366;-71
2023/03/25 06:55:37;;;;;;;8.70;7.70;;;;;;;-145.63;100.00;61273.97;5025265;28;20049;-71
2023/03/25 06:58:03;;;;;;;10.02;7.70;;;;;;;-145.63;100.00;61273.97;5024858;28;20041;-70
2023/03/25 07:00:29;;;;;;;12.93;8.30;;;;;;;-145.63;100.00;61273.97;5041815;28;20037;-69
2023/03/25 07:02:55;;;;;;;11.55;8.88;;;;;;;-145.63;100.00;61273.97;5037281;28;20225;-68
2023/03/25 07:05:20;;;;;;;11.95;8.65;;;;;;;-145.63;100.00;61273.97;5025149;28;20040;-66
2023/03/25 07:07:46;;;;;;;10.32;8.20;;;;;;;-145.63;100.00;61273.97;5025037;28;20026;-69
2023/03/25 07:10:12;;;;;;;11.13;9.15;;;;;;;-145.63;100.00;61273.97;5024957;28;20201;-69
2023/03/25 07:12:38;;;;;;;12.15;9.05;;;;;;;-145.63;100.00;61273.97;5025671;28;20057;-68
2023/03/25 07:15:05;;;;;;;10.73;9.57;;;;;;;-145.63;100.00;61273.97;5025155;28;20033;-69
2023/03/25 07:17:30;;;;;;;10.73;9.35;;;;;;;-145.63;100.00;61273.97;5023555;28;20034;-69
2023/03/25 07:19:56;;;;;;;10.52;8.07;;;;;;;-145.63;100.00;61273.97;5025072;28;20094;-68
2023/03/25 07:22:21;;;;;;;11.20;9.02;;;;;;;-145.63;100.00;61273.97;5024445;28;20041;-68
2023/03/25 07:24:47;;;;;;;15.48;10.20;;;;;;;-145.63;100.00;61273.97;5024702;28;20042;-69
2023/03/25 07:27:13;;;;;;;12.70;9.35;;;;;;;-145.63;100.00;61273.97;5025718;28;20045;-68
2023/03/25 07:29:39;;;;;;;13.77;9.57;;;;;;;-145.63;100.00;61273.97;5024897;28;20029;-69
2023/03/25 07:32:05;;;;;;;15.63;9.75;;;;;;;-145.63;100.00;61273.97;5029136;28;20046;-68
2023/03/25 07:34:31;;;;;;;14.75;10.65;;;;;;;-145.63;100.00;61273.97;5022311;28;20231;-68
2023/03/25 07:36:58;;;;;;;11.23;9.63;;;;;;;-145.63;100.00;61273.97;5018085;28;20029;-69
2023/03/25 07:39:24;;;;;;;14.43;10.07;;;;;;;-145.63;100.00;61273.97;5024568;28;20060;-69
2023/03/25 07:41:53;;;;;;;14.07;10.40;;;;;;;-145.63;100.00;61273.97;5024866;28;20030;-68
2023/03/25 07:44:20;;;;;;;12.30;10.20;;;;;;;-145.63;100.00;61273.97;5024257;28;20238;-69
2023/03/25 07:46:46;;;;;;;14.77;10.98;;;;;;;-145.63;100.00;61273.97;5022811;28;20045;-68
2023/03/25 07:49:12;;;;;;;12.57;10.77;;;;;;;-145.63;100.00;61273.97;5024543;28;20093;-68
2023/03/25 07:51:38;;;;;;;15.52;11.23;;;;;;;-145.63;100.00;61273.97;5056226;28;20029;-70
2023/03/25 07:54:03;;;;;;;16.75;11.15;;;;;;;-145.63;100.00;61273.97;5030266;28;20049;-68
2023/03/25 07:56:29;;;;;;;17.90;11.45;;;;;;;-145.63;100.00;61273.97;5033577;28;20046;-69
2023/03/25 07:58:55;;;;;;;16.85;11.07;;;;;;;-145.63;100.00;61273.97;5029634;28;20096;-68
2023/03/25 08:01:20;;;;;;;16.60;11.85;;;;;;;-145.63;100.00;61273.97;5035810;28;20030;-68
2023/03/25 08:03:46;;;;;;;15.75;11.27;;;;;;;-145.63;100.00;61273.97;5026301;28;20064;-70
2023/03/25 08:06:11;;;;;;;16.52;11.48;;;;;;;-145.63;100.00;61273.97;5024544;28;20045;-67
2023/03/25 08:08:37;;;;;;;13.77;12.32;;;;;;;-145.63;100.00;61273.97;5024402;28;20029;-68
2023/03/25 08:11:03;;;;;;;18.05;11.93;;;;;;;-145.63;100.00;61273.97;5023380;28;20056;-68
2023/03/25 08:13:29;;;;;;;18.10;11.63;;;;;;;-145.63;100.00;61273.97;5024211;28;20025;-67
2023/03/25 08:15:54;;;;;;;12.88;11.35;;;;;;;-145.63;100.00;61273.97;5023440;28;20049;-69
2023/03/25 08:18:20;;;;;;;14.18;11.82;;;;;;;-145.63;100.00;61273.97;5023847;28;20033;-68
2023/03/25 08:20:47;;;;;;;18.75;12.10;;;;;;;-145.63;100.00;61273.97;5014848;28;20318;-68
2023/03/25 08:23:17;;;;;;;26.05;19.77;;;;;;;-145.63;100.00;61273.97;5023973;28;20022;-70
2023/03/25 08:25:43;;;;;;;17.77;12.82;;;;;;;-145.63;100.00;61273.97;5023076;28;20334;-69
2023/03/25 08:28:09;;;;;;;18.90;12.60;;;;;;;-145.63;100.00;61273.97;5023637;28;20089;-68
2023/03/25 08:30:37;;;;;;;14.23;11.98;;;;;;;-145.63;100.00;61273.97;5023960;28;20083;-67
2023/03/25 08:33:07;;;;;;;15.68;12.32;;;;;;;-145.63;100.00;61273.97;5046883;28;20093;-68
2023/03/25 08:35:34;;;;;;;15.05;12.63;;;;;;;-145.63;100.00;61273.97;5033065;28;20075;-67
2023/03/25 08:38:03;;;;;;;18.25;14.32;;;;;;;-145.63;100.00;61273.97;5023246;28;20030;-67
2023/03/25 08:40:30;;;;;;;20.58;15.27;;;;;;;-145.63;100.00;61273.97;5022607;28;20260;-68
2023/03/25 08:42:56;;;;;;;17.10;14.35;;;;;;;-145.63;100.00;61273.97;5023742;28;20034;-68
2023/03/25 08:45:21;;;;;;;35.28;23.17;;;;;;;-145.63;100.00;61273.97;5023295;28;20128;-67
2023/03/25 08:47:47;;;;;;;18.70;13.95;;;;;;;-145.63;100.00;61273.97;5022932;28;20029;-69
2023/03/25 08:50:13;;;;;;;18.85;15.38;;;;;;;-145.63;100.00;61273.97;5016132;28;20042;-68
2023/03/25 08:52:38;;;;;;;20.23;13.88;;;;;;;-145.63;100.00;61273.97;5021248;28;20029;-68
2023/03/25 08:55:06;;;;;;;19.17;14.38;;;;;;;-145.63;100.00;61273.97;5023191;28;20030;-67
2023/03/25 08:57:35;;;;;;;17.08;14.07;;;;;;;-145.63;100.00;61273.97;5023048;28;20050;-67
2023/03/25 09:00:01;;;;;;;15.32;13.57;;;;;;;-145.63;100.00;61273.97;5023161;28;20230;-68
2023/03/25 09:02:26;;;;;;;16.33;14.55;;;;;;;-145.63;100.00;61273.97;5022994;28;20034;-67
2023/03/25 09:04:53;;;;;;;17.63;14.48;;;;;;;-145.63;100.00;61273.97;5022605;28;20029;-68
2023/03/25 09:07:19;;;;;;;22.40;15.60;;;;;;;-145.63;100.00;61273.97;5022976;28;20030;-68
2023/03/25 09:09:45;;;;;;;15.05;13.45;;;;;;;-145.63;100.00;61273.97;5022477;28;20093;-68
2023/03/25 09:12:11;;;;;;;17.95;16.10;;;;;;;-145.63;100.00;61273.97;5022493;28;20029;-69
2023/03/25 09:14:37;;;;;;;20.58;16.15;;;;;;;-145.63;100.00;61273.97;5022759;28;20036;-68
2023/03/25 09:17:04;;;;;;;17.70;15.82;;;;;;;-145.63;100.00;61273.97;5022591;28;20021;-69
2023/03/25 09:19:32;;;;;;;17.27;14.15;;;;;;;-145.63;100.00;61273.97;5021571;28;20029;-68
2023/03/25 09:21:57;;;;;;;15.43;13.80;;;;;;;-145.63;100.00;61273.97;5016032;28;20018;-69
2023/03/25 09:24:23;;;;;;;18.52;14.52;;;;;;;-145.63;100.00;61273.97;5034221;28;20036;-68
2023/03/25 09:26:49;;;;;;;16.08;13.00;;;;;;;-145.63;100.00;61273.97;5017414;28;20033;-68
2023/03/25 09:29:15;;;;;;;15.90;14.25;;;;;;;-145.63;100.00;61273.97;5029852;28;20022;-68
2023/03/25 09:31:40;;;;;;;15.32;13.20;;;;;;;-145.63;100.00;61273.97;5038331;28;20036;-69
2023/03/25 09:34:06;;;;;;;22.20;17.75;;;;;;;-145.63;100.00;61273.97;5022738;28;20242;-68
2023/03/25 09:36:31;;;;;;;15.50;13.85;;;;;;;-145.63;100.00;61273.97;5012530;28;20301;-68
2023/03/25 09:38:57;;;;;;;16.83;14.35;;;;;;;-145.63;100.00;61273.97;5022143;28;20088;-68
2023/03/25 09:41:32;;;;;;;16.60;13.38;;;;;;;-145.63;100.00;61273.97;5026692;28;20064;-68
2023/03/25 09:44:00;;;;;;;17.13;13.27;;;;;;;-145.63;100.00;61273.97;5026586;28;20169;-68
2023/03/25 09:46:40;;;;;;;15.63;13.93;;;;;;;-145.63;100.00;61273.97;5016910;28;20034;-69
2023/03/25 09:49:58;;;;;;;17.15;12.98;;;;;;;-145.63;100.00;61273.97;5007108;28;20369;-69
2023/03/25 09:52:52;;;;;;;17.27;12.30;;;;;;;-145.63;100.00;61273.97;5021160;28;20076;-69
2023/03/25 09:55:24;;;;;;;21.20;13.20;;;;;;;-145.63;100.00;61273.97;5026203;28;20060;-68
2023/03/25 09:58:02;;;;;;;17.63;13.43;;;;;;;-145.63;100.00;61273.97;5030048;28;20037;-70
2023/03/25 10:00:34;;;;;;;14.85;12.80;;;;;;;-145.63;100.00;61273.97;5034013;28;20038;-70
2023/03/25 10:03:30;;;;;;;15.60;13.50;;;;;;;-145.63;100.00;61273.97;5017247;28;20026;-70
2023/03/25 10:07:08;;;;;;;15.88;12.80;;;;;;;-145.63;100.00;61273.97;5023348;28;20032;-68
2023/03/25 10:09:47;;;;;;;14.85;13.15;;;;;;;-145.63;100.00;61273.97;5016465;28;20045;-68
2023/03/25 10:12:21;;;;;;;17.13;12.20;;;;;;;-145.63;100.00;61273.97;5029906;28;20033;-68
2023/03/25 10:15:25;;;;;;;14.50;12.93;;;;;;;-145.63;100.00;61273.97;5006075;28;20031;-66
2023/03/25 10:18:19;;;;;;;17.83;13.60;;;;;;;-145.63;100.00;61273.97;5025837;28;20036;-67
2023/03/25 10:21:01;;;;;;;18.45;13.18;;;;;;;-145.63;100.00;61273.97;5009500;28;20041;-67
2023/03/25 10:23:37;;;;;;;16.92;12.40;;;;;;;-145.63;100.00;61273.97;5042432;28;20032;-68
2023/03/25 10:26:14;;;;;;;15.65;13.20;;;;;;;-145.63;100.00;61273.97;5039192;28;20022;-69
2023/03/25 10:28:54;;;;;;;21.00;14.18;;;;;;;-145.63;100.00;61273.97;5034602;28;20063;-68
2023/03/25 10:31:33;;;;;;;18.77;13.95;;;;;;;-145.63;100.00;61273.97;5034342;28;20053;-67
2023/03/25 10:34:04;;;;;;;15.85;13.05;;;;;;;-145.63;100.00;61273.97;5020297;28;20038;-68
2023/03/25 10:36:35;;;;;;;14.98;13.32;;;;;;;-145.63;100.00;61273.97;5016990;28;20029;-68
2023/03/25 10:42:33;;;;;;;14.52;12.38;;;;;;;-145.63;100.00;61273.97;5014724;28;20113;-69
2023/03/25 10:45:17;;;;;;;20.80;13.20;;;;;;;-145.63;100.00;61273.97;5015483;28;20044;-70
2023/03/25 10:47:45;;;;;;;23.00;14.00;;;;;;;-145.63;100.00;61273.97;5020182;28;20042;-69
2023/03/25 10:50:33;;;;;;;16.25;12.75;;;;;;;-145.63;100.00;61273.97;5035582;28;20245;-69
2023/03/25 10:53:31;;;;;;;14.80;12.68;;;;;;;-145.63;100.00;61273.97;5013270;28;20036;-70
2023/03/25 10:56:07;;;;;;;15.27;11.85;;;;;;;-145.63;100.00;61273.97;5015960;28;20314;-70
2023/03/25 10:58:36;;;;;;;14.80;13.27;;;;;;;-145.63;100.00;61273.97;5023823;28;20116;-69
2023/03/25 11:01:10;;;;;;;13.52;12.07;;;;;;;-145.63;100.00;61273.97;5028610;28;20021;-69
2023/03/25 11:03:39;;;;;;;13.88;12.07;;;;;;;-145.63;100.00;61273.97;5035793;28;20069;-70
2023/03/25 11:06:05;;;;;;;14.77;12.35;;;;;;;-145.63;100.00;61273.97;5034067;28;20129;-67
2023/03/25 11:08:38;;;;;;;12.27;11.02;;;;;;;-145.63;100.00;61273.97;5039231;28;20056;-69
2023/03/25 11:11:16;;;;;;;15.18;12.15;;;;;;;-145.63;100.00;61273.97;5030864;28;20034;-68
2023/03/25 11:13:45;;;;;;;14.27;12.38;;;;;;;-145.63;100.00;61273.97;5035676;28;20194;-69
2023/03/25 11:16:13;;;;;;;15.52;13.07;;;;;;;-145.63;100.00;61273.97;5043619;28;20068;-69
2023/03/25 11:18:39;;;;;;;16.25;12.10;;;;;;;-145.63;100.00;61273.97;5034024;28;20041;-69
2023/03/25 11:21:10;;;;;;;14.07;11.68;;;;;;;-145.63;100.00;61273.97;5025006;28;20026;-69